Time;durP1;ratioP1;P1;durP2;ratioP2;P2;SDS_P1;SDS_P2;PMS_P1;PMS_P2;Temp;Humidity;BMP_temperature;BMP_pressure;BME280_temperature;BME280_humidity;BME280_pressure;Samples;Min_cycle;Max_cycle;Signal;HPM_P1;HPM_P2
2022/09/20 00:00:44;;;;;;;0.20;0.20;;;11.20;99.90;;;;;;4873078;29;20048;-77
2022/09/20 00:03:10;;;;;;;0.15;0.15;;;11.10;99.90;;;;;;4871969;29;20169;-78
2022/09/20 00:05:38;;;;;;;0.20;0.20;;;11.20;99.90;;;;;;4873789;29;20045;-78
2022/09/20 00:08:06;;;;;;;0.10;0.10;;;11.10;99.90;;;;;;4857958;29;21004;-78
2022/09/20 00:10:38;;;;;;;0.20;0.20;;;11.10;99.90;;;;;;4876073;29;20140;-79
2022/09/20 00:13:05;;;;;;;0.20;0.20;;;11.00;99.90;;;;;;4872964;29;20044;-78
2022/09/20 00:15:32;;;;;;;0.10;0.10;;;11.00;99.90;;;;;;4873859;29;20405;-78
2022/09/20 00:17:58;;;;;;;0.20;0.20;;;10.90;99.90;;;;;;4873952;29;20068;-78
2022/09/20 00:20:24;;;;;;;0.10;0.10;;;10.90;99.90;;;;;;4871762;29;20587;-78
2022/09/20 00:22:50;;;;;;;0.20;0.20;;;10.80;99.90;;;;;;4876125;29;20059;-79
2022/09/20 00:25:16;;;;;;;0.20;0.20;;;10.80;99.90;;;;;;4875489;29;20040;-79
2022/09/20 00:27:43;;;;;;;0.20;0.20;;;10.70;99.90;;;;;;4872135;29;21163;-79
2022/09/20 00:30:09;;;;;;;0.10;0.10;;;10.70;99.90;;;;;;4857693;29;20068;-79
2022/09/20 00:32:35;;;;;;;0.20;0.20;;;10.70;99.90;;;;;;4873213;29;20053;-79
2022/09/20 00:35:06;;;;;;;0.20;0.20;;;10.70;99.90;;;;;;4876805;29;20049;-79
2022/09/20 00:37:33;;;;;;;0.20;0.20;;;10.60;99.90;;;;;;4875482;29;21815;-78
2022/09/20 00:39:58;;;;;;;0.20;0.20;;;10.70;99.90;;;;;;4857667;29;20053;-78
2022/09/20 00:42:29;;;;;;;0.10;0.10;;;10.60;99.90;;;;;;4875000;29;20057;-78
2022/09/20 00:45:00;;;;;;;0.20;0.20;;;10.60;99.90;;;;;;4857952;29;20092;-79
2022/09/20 00:47:43;;;;;;;0.20;0.20;;;10.60;99.90;;;;;;4870827;29;20217;-78
2022/09/20 00:50:18;;;;;;;0.20;0.20;;;10.50;99.90;;;;;;4857783;29;20080;-78
2022/09/20 00:52:50;;;;;;;0.20;0.20;;;10.50;99.90;;;;;;4858578;29;20041;-78
2022/09/20 00:55:16;;;;;;;0.13;0.13;;;10.60;99.90;;;;;;4874141;29;20083;-78
2022/09/20 00:57:43;;;;;;;0.10;0.10;;;10.50;99.90;;;;;;4875292;29;20060;-79
2022/09/20 01:00:10;;;;;;;0.20;0.20;;;10.50;99.90;;;;;;4873323;29;20072;-78
2022/09/20 01:02:40;;;;;;;0.17;0.17;;;10.90;99.90;;;;;;4855401;29;20648;-78
2022/09/20 01:05:08;;;;;;;0.20;0.20;;;10.40;99.90;;;;;;4859084;29;20044;-78
2022/09/20 01:07:35;;;;;;;0.10;0.10;;;10.40;99.90;;;;;;4856690;29;20055;-78
2022/09/20 01:10:00;;;;;;;0.20;0.20;;;10.40;99.90;;;;;;4874180;29;20048;-78
2022/09/20 01:12:31;;;;;;;0.20;0.20;;;10.50;99.90;;;;;;4856385;29;20045;-79
2022/09/20 01:14:59;;;;;;;0.20;0.20;;;10.30;99.90;;;;;;4856156;29;20045;-78
2022/09/20 01:17:27;;;;;;;0.10;0.10;;;10.30;99.90;;;;;;4856876;29;20043;-78
2022/09/20 01:20:06;;;;;;;0.10;0.10;;;10.30;99.90;;;;;;4875174;29;20053;-78
2022/09/20 01:22:50;;;;;;;0.20;0.20;;;10.20;99.90;;;;;;4855447;29;20060;-78
2022/09/20 01:25:39;;;;;;;0.10;0.10;;;10.20;99.90;;;;;;4874506;29;20410;-77
2022/09/20 01:28:05;;;;;;;0.20;0.20;;;10.10;99.90;;;;;;4854172;29;20147;-78
2022/09/20 01:30:42;;;;;;;0.20;0.20;;;10.10;99.90;;;;;;4851654;29;20139;-78
2022/09/20 01:33:30;;;;;;;0.10;0.10;;;10.10;99.90;;;;;;4872898;29;20056;-80
2022/09/20 01:35:59;;;;;;;0.17;0.17;;;10.00;99.90;;;;;;4851870;29;20829;-77
2022/09/20 01:38:44;;;;;;;0.20;0.20;;;10.00;99.90;;;;;;4861700;29;20048;-77
2022/09/20 01:41:26;;;;;;;0.20;0.20;;;9.90;99.90;;;;;;4857385;29;20638;-78
2022/09/20 01:43:57;;;;;;;0.20;0.20;;;10.00;99.90;;;;;;4872014;29;20049;-78
2022/09/20 01:46:32;;;;;;;0.20;0.20;;;9.90;99.90;;;;;;4855554;29;20053;-78
2022/09/20 01:49:16;;;;;;;0.20;0.20;;;9.90;99.90;;;;;;4855719;29;20056;-78
2022/09/20 01:52:04;;;;;;;0.20;0.20;;;9.90;99.90;;;;;;4872995;29;20060;-79
2022/09/20 01:54:51;;;;;;;0.10;0.10;;;9.90;99.90;;;;;;4856678;29;20067;-79
2022/09/20 01:57:32;;;;;;;0.20;0.20;;;9.80;99.90;;;;;;4855821;29;20135;-78
2022/09/20 02:00:07;;;;;;;0.20;0.20;;;9.70;99.90;;;;;;4873198;29;20049;-78
2022/09/20 02:03:07;;;;;;;0.20;0.20;;;9.70;99.90;;;;;;4853937;29;20045;-78
2022/09/20 02:05:45;;;;;;;0.20;0.20;;;9.70;99.90;;;;;;4869609;29;20068;-78
2022/09/20 02:08:35;;;;;;;0.10;0.10;;;9.70;99.90;;;;;;4870387;29;20033;-78
2022/09/20 02:11:18;;;;;;;0.10;0.10;;;9.60;99.90;;;;;;4853830;29;20069;-78
2022/09/20 02:14:04;;;;;;;0.10;0.10;;;9.40;99.90;;;;;;4853587;29;20490;-78
2022/09/20 02:16:44;;;;;;;0.20;0.20;;;9.30;99.90;;;;;;4870211;29;20124;-77
2022/09/20 02:19:13;;;;;;;0.20;0.20;;;9.30;99.90;;;;;;4874071;29;20041;-78
2022/09/20 02:21:41;;;;;;;0.20;0.20;;;9.30;99.90;;;;;;4858962;29;20580;-78
2022/09/20 02:24:37;;;;;;;0.10;0.10;;;9.30;99.90;;;;;;4870178;29;20109;-78
2022/09/20 02:27:24;;;;;;;0.20;0.20;;;9.30;99.90;;;;;;4867355;29;20087;-78
2022/09/20 02:30:27;;;;;;;0.20;0.20;;;9.30;99.90;;;;;;4872661;29;20472;-78
2022/09/20 02:33:15;;;;;;;0.20;0.20;;;9.30;99.90;;;;;;4851346;29;20053;-78
2022/09/20 02:36:00;;;;;;;0.20;0.20;;;9.20;99.90;;;;;;4871751;29;20552;-78
2022/09/20 02:38:51;;;;;;;0.20;0.20;;;9.30;99.90;;;;;;4876011;29;20045;-78
2022/09/20 02:41:25;;;;;;;0.10;0.10;;;9.20;99.90;;;;;;4859614;29;20049;-78
2022/09/20 02:44:07;;;;;;;0.10;0.10;;;9.30;99.90;;;;;;4872064;29;20152;-78
2022/09/20 02:46:52;;;;;;;0.20;0.20;;;9.30;99.90;;;;;;4859261;29;20105;-78
2022/09/20 02:49:40;;;;;;;0.10;0.10;;;9.30;99.90;;;;;;4856939;29;20060;-78
2022/09/20 02:52:43;;;;;;;0.20;0.20;;;9.20;99.90;;;;;;4873635;29;20081;-78
2022/09/20 02:55:27;;;;;;;0.10;0.10;;;9.30;99.90;;;;;;4858344;29;20059;-78
2022/09/20 02:58:11;;;;;;;0.15;0.15;;;9.30;99.90;;;;;;4850638;29;20527;-78
2022/09/20 03:01:12;;;;;;;0.20;0.20;;;9.20;99.90;;;;;;4875029;29;20061;-78
2022/09/20 03:04:04;;;;;;;0.10;0.10;;;9.20;99.90;;;;;;4855992;29;20077;-78
2022/09/20 03:06:54;;;;;;;0.20;0.20;;;9.20;99.90;;;;;;4860456;29;20061;-78
2022/09/20 03:09:41;;;;;;;0.20;0.20;;;9.20;99.90;;;;;;4858424;29;20052;-78
2022/09/20 03:12:32;;;;;;;0.10;0.10;;;9.20;99.90;;;;;;4876749;29;20124;-78
2022/09/20 03:15:14;;;;;;;0.10;0.10;;;9.20;99.90;;;;;;4855096;29;20107;-77
2022/09/20 03:18:34;;;;;;;0.10;0.10;;;9.20;99.90;;;;;;4858195;29;20052;-79
2022/09/20 03:21:18;;;;;;;0.20;0.20;;;9.20;99.90;;;;;;4813245;29;20295;-79
2022/09/20 03:24:00;;;;;;;0.20;0.20;;;9.20;99.90;;;;;;4870493;29;20064;-79
2022/09/20 03:26:46;;;;;;;0.20;0.20;;;9.10;99.90;;;;;;4859500;29;20061;-78
2022/09/20 03:29:48;;;;;;;0.20;0.20;;;9.10;99.90;;;;;;4871953;29;20053;-77
2022/09/20 03:32:29;;;;;;;0.20;0.20;;;9.10;99.90;;;;;;4857287;29;20476;-77
2022/09/20 03:34:57;;;;;;;0.20;0.20;;;9.10;99.90;;;;;;4874786;29;20045;-77
2022/09/20 03:37:42;;;;;;;0.10;0.10;;;9.10;99.90;;;;;;4874239;29;20557;-79
2022/09/20 03:40:14;;;;;;;0.20;0.20;;;9.80;99.90;;;;;;4860860;29;20049;-79
2022/09/20 03:42:50;;;;;;;0.20;0.20;;;9.10;99.90;;;;;;4873540;29;20049;-79
2022/09/20 03:45:45;;;;;;;0.20;0.20;;;9.10;99.90;;;;;;4869956;29;20458;-79
2022/09/20 03:48:22;;;;;;;0.10;0.10;;;9.10;99.90;;;;;;4872973;29;20467;-79
2022/09/20 03:51:15;;;;;;;0.17;0.17;;;9.10;99.90;;;;;;4874101;29;20124;-79
2022/09/20 03:53:59;;;;;;;0.20;0.20;;;9.00;99.90;;;;;;4847086;29;20065;-79
2022/09/20 03:56:51;;;;;;;0.10;0.10;;;9.00;99.90;;;;;;4857454;29;20041;-79
2022/09/20 03:59:35;;;;;;;0.10;0.10;;;9.00;99.90;;;;;;4856894;29;20101;-79
2022/09/20 04:02:33;;;;;;;0.20;0.20;;;9.00;99.90;;;;;;4875168;29;20053;-79
2022/09/20 04:05:05;;;;;;;0.20;0.20;;;9.00;99.90;;;;;;4873173;29;20068;-79
2022/09/20 04:07:53;;;;;;;0.17;0.17;;;9.00;99.90;;;;;;4875488;29;20041;-79
2022/09/20 04:10:58;;;;;;;0.20;0.20;;;9.00;99.90;;;;;;4860356;29;20052;-79
2022/09/20 04:13:39;;;;;;;0.20;0.20;;;9.00;99.90;;;;;;4784454;29;20099;-79
2022/09/20 04:16:21;;;;;;;0.20;0.20;;;9.00;99.90;;;;;;4873498;29;20109;-79
2022/09/20 04:19:13;;;;;;;0.10;0.10;;;9.00;99.90;;;;;;4858129;29;20064;-79
2022/09/20 04:22:08;;;;;;;0.10;0.10;;;9.00;99.90;;;;;;4857807;29;20061;-79
2022/09/20 04:24:49;;;;;;;0.20;0.20;;;9.00;99.90;;;;;;4874991;29;20048;-79
2022/09/20 04:27:19;;;;;;;0.20;0.20;;;9.10;99.90;;;;;;4851315;29;20462;-77
2022/09/20 04:29:56;;;;;;;0.20;0.20;;;9.10;99.90;;;;;;4853504;29;20049;-80
2022/09/20 04:32:54;;;;;;;0.10;0.10;;;9.10;99.90;;;;;;4866317;29;20049;-78
2022/09/20 04:38:39;;;;;;;0.20;0.20;;;9.10;99.90;;;;;;4850553;29;20491;-78
2022/09/20 04:41:16;;;;;;;0.20;0.20;;;9.10;99.90;;;;;;4855570;29;20401;-78
2022/09/20 04:43:52;;;;;;;0.20;0.20;;;9.10;99.90;;;;;;4855771;29;20053;-78
2022/09/20 04:46:39;;;;;;;0.10;0.10;;;9.10;99.90;;;;;;4854036;29;20049;-78
2022/09/20 04:49:36;;;;;;;0.10;0.10;;;9.10;99.90;;;;;;4854542;29;20100;-79
2022/09/20 04:52:11;;;;;;;0.10;0.10;;;9.10;99.90;;;;;;4855415;29;20136;-79
2022/09/20 04:55:00;;;;;;;0.10;0.10;;;9.10;99.90;;;;;;4854877;29;20132;-78
2022/09/20 04:58:06;;;;;;;0.20;0.20;;;9.10;99.90;;;;;;4854369;29;20045;-78
2022/09/20 05:00:47;;;;;;;0.17;0.17;;;9.10;99.90;;;;;;4844180;29;20136;-78
2022/09/20 05:03:26;;;;;;;0.20;0.20;;;9.00;99.90;;;;;;4853890;29;20064;-78
2022/09/20 05:06:25;;;;;;;0.10;0.10;;;9.00;99.90;;;;;;4854981;29;20046;-78
2022/09/20 05:09:20;;;;;;;0.20;0.20;;;9.10;99.90;;;;;;4853648;29;20042;-78
2022/09/20 05:11:52;;;;;;;0.10;0.10;;;9.10;99.90;;;;;;4854551;29;20061;-78
2022/09/20 05:14:43;;;;;;;0.20;0.20;;;9.10;99.90;;;;;;4854079;29;20069;-78
2022/09/20 05:17:13;;;;;;;0.20;0.20;;;9.10;99.90;;;;;;4841309;29;20240;-78
2022/09/20 05:20:04;;;;;;;0.10;0.10;;;9.20;99.90;;;;;;4851524;29;20057;-78
2022/09/20 05:23:03;;;;;;;0.10;0.10;;;9.20;99.90;;;;;;4852142;29;20049;-79
2022/09/20 05:25:41;;;;;;;0.20;0.20;;;9.20;99.90;;;;;;4857128;29;20057;-79
2022/09/20 05:28:27;;;;;;;0.10;0.10;;;9.30;99.90;;;;;;4878736;29;20131;-78
2022/09/20 05:31:11;;;;;;;0.20;0.20;;;9.30;99.90;;;;;;4858984;29;20409;-78
2022/09/20 05:33:55;;;;;;;0.20;0.20;;;9.40;99.90;;;;;;4872902;29;20045;-78
2022/09/20 05:36:43;;;;;;;0.10;0.10;;;9.40;99.90;;;;;;4873383;29;20052;-78
2022/09/20 05:39:27;;;;;;;0.20;0.20;;;9.50;99.90;;;;;;4871855;29;20053;-78
2022/09/20 05:42:10;;;;;;;0.20;0.20;;;9.50;99.90;;;;;;4873683;29;20048;-78
2022/09/20 05:45:13;;;;;;;0.20;0.20;;;9.60;99.90;;;;;;4871744;29;21917;-78
2022/09/20 05:47:50;;;;;;;0.10;0.10;;;9.70;99.90;;;;;;4874611;29;20505;-79
2022/09/20 05:50:54;;;;;;;0.10;0.10;;;9.70;99.90;;;;;;4875590;29;20049;-78
2022/09/20 05:53:57;;;;;;;0.10;0.10;;;9.70;99.90;;;;;;4874445;29;20049;-79
2022/09/20 05:56:41;;;;;;;0.20;0.20;;;9.80;99.90;;;;;;4862776;29;20049;-78
2022/09/20 05:59:44;;;;;;;0.20;0.20;;;9.80;99.90;;;;;;4871461;29;20493;-77
2022/09/20 06:02:31;;;;;;;0.20;0.20;;;9.90;99.90;;;;;;4870421;29;20045;-78
2022/09/20 06:05:18;;;;;;;0.20;0.20;;;9.90;99.90;;;;;;4850383;29;20045;-77
2022/09/20 06:07:53;;;;;;;0.10;0.10;;;9.90;99.90;;;;;;4854662;29;20985;-78
2022/09/20 06:10:49;;;;;;;0.20;0.20;;;9.90;99.90;;;;;;4875860;29;20404;-77
2022/09/20 06:13:33;;;;;;;0.17;0.17;;;10.00;99.90;;;;;;4879550;29;20070;-78
2022/09/20 06:16:03;;;;;;;0.20;0.20;;;10.00;99.90;;;;;;4874853;29;20045;-78
2022/09/20 06:18:41;;;;;;;0.10;0.10;;;10.10;99.90;;;;;;4854009;29;20461;-78
2022/09/20 06:21:49;;;;;;;0.20;0.20;;;10.10;99.90;;;;;;4884673;29;20049;-78
2022/09/20 06:24:30;;;;;;;0.10;0.10;;;10.20;99.90;;;;;;4872667;29;20053;-79
2022/09/20 06:26:58;;;;;;;0.20;0.20;;;10.30;99.90;;;;;;4875541;29;20057;-79
2022/09/20 06:29:30;;;;;;;0.20;0.20;;;10.40;99.90;;;;;;4870246;29;20528;-79
2022/09/20 06:31:56;;;;;;;0.13;0.13;;;10.40;99.90;;;;;;4855935;29;20520;-79
2022/09/20 06:34:21;;;;;;;0.20;0.20;;;10.50;99.90;;;;;;4876725;29;20072;-78
2022/09/20 06:42:52;;;;;;;0.20;0.20;;;10.60;99.90;;;;;;4872345;29;20385;-77
2022/09/20 06:45:18;;;;;;;0.20;0.20;;;10.60;99.90;;;;;;4873755;29;20048;-77
2022/09/20 06:47:43;;;;;;;0.20;0.20;;;10.70;99.90;;;;;;4870882;29;20052;-78
2022/09/20 06:50:15;;;;;;;0.20;0.20;;;10.70;99.90;;;;;;4858429;29;20052;-77
2022/09/20 06:52:43;;;;;;;0.20;0.20;;;10.80;99.90;;;;;;4857834;29;20051;-78
2022/09/20 06:55:21;;;;;;;0.20;0.20;;;10.90;99.90;;;;;;4879485;29;20048;-78
2022/09/20 06:57:47;;;;;;;0.17;0.17;;;10.80;99.90;;;;;;4877993;29;20033;-77
2022/09/20 07:00:14;;;;;;;0.20;0.20;;;10.80;99.90;;;;;;4876170;29;20057;-77
2022/09/20 07:02:41;;;;;;;0.10;0.10;;;10.90;99.90;;;;;;4861303;29;20095;-78
2022/09/20 07:05:13;;;;;;;0.20;0.20;;;11.00;99.90;;;;;;4868381;29;20182;-77
2022/09/20 07:07:39;;;;;;;0.20;0.20;;;10.90;99.90;;;;;;4882878;29;20041;-78
2022/09/20 07:10:05;;;;;;;0.10;0.10;;;11.00;99.90;;;;;;4881157;29;20052;-77
2022/09/20 07:12:32;;;;;;;0.20;0.20;;;11.00;99.90;;;;;;4864023;29;20137;-78
2022/09/20 07:14:58;;;;;;;0.20;0.20;;;11.00;99.90;;;;;;4878740;29;20044;-78
2022/09/20 07:17:24;;;;;;;0.10;0.10;;;11.10;99.90;;;;;;4863068;29;20047;-77
2022/09/20 07:19:50;;;;;;;0.20;0.20;;;11.10;99.90;;;;;;4867963;29;20070;-78
2022/09/20 07:22:16;;;;;;;0.20;0.20;;;11.20;99.90;;;;;;4895795;29;20041;-77
2022/09/20 07:24:43;;;;;;;0.20;0.20;;;11.10;99.90;;;;;;4874860;29;20044;-78
2022/09/20 07:27:10;;;;;;;0.20;0.20;;;11.20;99.90;;;;;;4861116;29;20057;-78
2022/09/20 07:29:36;;;;;;;0.10;0.10;;;11.20;99.90;;;;;;4880946;29;20056;-78
2022/09/20 07:32:02;;;;;;;0.15;0.15;;;11.30;99.90;;;;;;4861433;29;20045;-78
2022/09/20 07:34:28;;;;;;;0.10;0.10;;;11.30;99.90;;;;;;4861758;29;20060;-78
2022/09/20 07:36:56;;;;;;;0.10;0.10;;;11.40;99.90;;;;;;4875749;29;20068;-78
2022/09/20 07:39:22;;;;;;;0.20;0.20;;;11.60;99.90;;;;;;4861399;29;20053;-78
2022/09/20 07:41:49;;;;;;;0.15;0.15;;;11.50;99.90;;;;;;4877552;29;20068;-78
2022/09/20 07:44:23;;;;;;;0.20;0.20;;;11.60;99.90;;;;;;4877475;29;20049;-78
2022/09/20 07:46:54;;;;;;;0.20;0.20;;;11.60;99.90;;;;;;4860943;29;20417;-78
2022/09/20 07:49:20;;;;;;;0.20;0.20;;;11.70;99.90;;;;;;4877584;29;20132;-78
2022/09/20 07:51:47;;;;;;;0.20;0.20;;;11.70;99.90;;;;;;4861719;29;20572;-78
2022/09/20 07:54:13;;;;;;;0.20;0.20;;;11.80;99.90;;;;;;4861449;29;20059;-78
2022/09/20 07:56:39;;;;;;;0.10;0.10;;;11.90;99.90;;;;;;4858909;29;20792;-78
2022/09/20 07:59:05;;;;;;;0.20;0.20;;;11.90;99.90;;;;;;4861413;29;20048;-78
2022/09/20 08:01:30;;;;;;;0.20;0.20;;;11.90;99.90;;;;;;4855236;29;20493;-77
2022/09/20 08:03:56;;;;;;;0.20;0.20;;;12.00;99.90;;;;;;4862047;29;20117;-78
2022/09/20 08:06:22;;;;;;;0.20;0.20;;;12.10;99.90;;;;;;4863014;29;20112;-78
2022/09/20 08:08:48;;;;;;;0.10;0.10;;;12.10;99.90;;;;;;4869414;29;20052;-77
2022/09/20 08:11:24;;;;;;;0.20;0.20;;;12.20;99.90;;;;;;4867015;29;20409;-78
2022/09/20 08:13:52;;;;;;;0.15;0.15;;;12.20;99.90;;;;;;4878035;29;20120;-77
2022/09/20 08:16:19;;;;;;;0.10;0.10;;;12.30;99.90;;;;;;4859643;29;20558;-78
2022/09/20 08:18:50;;;;;;;0.20;0.20;;;12.40;99.90;;;;;;4860724;29;20521;-79
2022/09/20 08:21:17;;;;;;;0.20;0.20;;;12.50;99.90;;;;;;4880708;29;20056;-80
2022/09/20 08:23:46;;;;;;;0.20;0.20;;;12.60;99.90;;;;;;4879487;29;20050;-80
2022/09/20 08:26:14;;;;;;;0.17;0.17;;;12.70;99.90;;;;;;4860199;29;20060;-79
2022/09/20 08:28:41;;;;;;;0.10;0.10;;;12.70;99.90;;;;;;4860659;29;20056;-78
2022/09/20 08:31:15;;;;;;;0.20;0.20;;;12.80;99.90;;;;;;4875636;29;20497;-79
2022/09/20 08:33:42;;;;;;;0.20;0.20;;;12.80;99.90;;;;;;4874883;29;20454;-79
2022/09/20 08:36:11;;;;;;;0.10;0.10;;;12.80;99.90;;;;;;4859780;29;20494;-79
2022/09/20 08:38:37;;;;;;;0.10;0.10;;;12.90;99.90;;;;;;4876846;29;20076;-79
2022/09/20 08:41:09;;;;;;;0.10;0.10;;;12.90;99.90;;;;;;4875787;29;20417;-78
2022/09/20 08:43:38;;;;;;;0.13;0.13;;;13.00;99.90;;;;;;4877136;29;20340;-80
2022/09/20 08:46:09;;;;;;;0.20;0.20;;;13.10;99.90;;;;;;4857745;29;20056;-78
2022/09/20 08:48:34;;;;;;;0.20;0.20;;;13.10;99.90;;;;;;4877132;29;20424;-78
2022/09/20 08:51:02;;;;;;;0.13;0.13;;;13.20;99.90;;;;;;4877384;29;20049;-79
2022/09/20 08:53:29;;;;;;;0.13;0.13;;;13.20;99.90;;;;;;4858921;29;20049;-79
2022/09/20 08:55:58;;;;;;;0.20;0.20;;;13.30;99.90;;;;;;4874806;29;20061;-79
2022/09/20 08:58:25;;;;;;;0.20;0.20;;;13.30;99.90;;;;;;4875266;29;20037;-79
2022/09/20 09:00:51;;;;;;;0.20;0.20;;;13.30;99.90;;;;;;4857682;29;20068;-78
2022/09/20 09:03:17;;;;;;;0.15;0.15;;;13.30;99.90;;;;;;4864866;29;20069;-79
2022/09/20 09:05:46;;;;;;;0.20;0.20;;;13.30;99.90;;;;;;4884688;29;20051;-79
2022/09/20 09:08:15;;;;;;;0.15;0.15;;;13.40;99.90;;;;;;4882535;29;20048;-79
2022/09/20 09:10:53;;;;;;;0.20;0.20;;;13.50;99.90;;;;;;4863124;29;20045;-79
2022/09/20 09:13:32;;;;;;;0.10;0.10;;;13.60;99.90;;;;;;4859737;29;20494;-80
2022/09/20 09:16:06;;;;;;;0.20;0.20;;;13.60;99.90;;;;;;4875529;29;20557;-79
2022/09/20 09:18:35;;;;;;;0.20;0.20;;;13.70;99.90;;;;;;4866658;29;20139;-79
2022/09/20 09:21:04;;;;;;;0.10;0.10;;;13.80;99.90;;;;;;4876025;29;20049;-79
2022/09/20 09:23:40;;;;;;;0.10;0.10;;;13.90;99.90;;;;;;4878459;29;20048;-79
2022/09/20 09:26:18;;;;;;;0.10;0.10;;;14.00;99.90;;;;;;4880669;29;20053;-79
2022/09/20 09:28:44;;;;;;;0.20;0.20;;;14.50;99.90;;;;;;4868447;29;20068;-82
2022/09/20 09:31:27;;;;;;;0.10;0.10;;;14.10;99.90;;;;;;4869071;29;20291;-79
2022/09/20 09:33:52;;;;;;;0.15;0.15;;;14.20;99.90;;;;;;4859325;29;20045;-78
2022/09/20 09:36:24;;;;;;;0.10;0.10;;;14.20;99.90;;;;;;4859186;29;20270;-80
2022/09/20 09:39:29;;;;;;;0.20;0.20;;;14.40;99.90;;;;;;4875264;29;20048;-78
2022/09/20 09:41:56;;;;;;;0.10;0.10;;;14.30;99.90;;;;;;4856476;29;20139;-79
2022/09/20 09:44:32;;;;;;;0.20;0.20;;;14.40;99.90;;;;;;4860184;29;20056;-79
2022/09/20 09:46:57;;;;;;;0.20;0.20;;;14.40;99.90;;;;;;4875841;29;20490;-79
2022/09/20 09:49:34;;;;;;;0.10;0.10;;;14.50;99.90;;;;;;4862235;29;20048;-79
2022/09/20 09:52:00;;;;;;;0.10;0.10;;;14.60;99.90;;;;;;4859604;29;20177;-80
2022/09/20 09:54:29;;;;;;;0.20;0.20;;;14.50;99.90;;;;;;4876540;29;20119;-79
2022/09/20 09:57:15;;;;;;;0.20;0.20;;;14.60;99.90;;;;;;4860035;29;20064;-80
2022/09/20 10:00:11;;;;;;;0.20;0.20;;;14.60;99.90;;;;;;4895457;29;20123;-80
2022/09/20 10:02:52;;;;;;;0.20;0.20;;;14.70;99.90;;;;;;4873816;29;20151;-80
2022/09/20 10:05:36;;;;;;;0.17;0.17;;;14.60;99.90;;;;;;4876619;29;20049;-79
2022/09/20 10:08:24;;;;;;;0.20;0.20;;;14.70;99.90;;;;;;4858423;29;20061;-81
2022/09/20 10:11:16;;;;;;;0.20;0.20;;;14.80;99.90;;;;;;4860271;29;20068;-81
2022/09/20 10:14:12;;;;;;;0.20;0.20;;;14.90;99.90;;;;;;4852252;29;20049;-80
2022/09/20 10:16:58;;;;;;;0.20;0.20;;;14.90;99.90;;;;;;4853213;29;20132;-80
2022/09/20 10:20:02;;;;;;;0.20;0.20;;;15.00;99.90;;;;;;4853096;29;20108;-81
2022/09/20 10:22:50;;;;;;;0.10;0.10;;;15.00;99.90;;;;;;4869293;29;20060;-80
2022/09/20 10:25:29;;;;;;;0.10;0.10;;;15.10;99.90;;;;;;4861342;29;20469;-80
2022/09/20 10:28:12;;;;;;;0.15;0.15;;;15.20;99.90;;;;;;4859370;29;20139;-81
2022/09/20 10:30:55;;;;;;;0.17;0.17;;;15.30;99.90;;;;;;4870986;29;20040;-80
2022/09/20 10:33:40;;;;;;;0.17;0.17;;;15.40;99.90;;;;;;4877048;29;20049;-80
2022/09/20 10:36:19;;;;;;;0.20;0.20;;;15.50;99.90;;;;;;4868728;29;20381;-80
2022/09/20 10:38:56;;;;;;;0.20;0.20;;;15.60;99.90;;;;;;4855340;29;20424;-80
2022/09/20 10:44:35;;;;;;;0.20;0.20;;;15.60;99.90;;;;;;4874214;29;20053;-81
2022/09/20 10:47:16;;;;;;;0.10;0.10;;;15.60;99.90;;;;;;4873903;29;20101;-80
2022/09/20 10:50:01;;;;;;;0.10;0.10;;;15.70;99.90;;;;;;4873436;29;20063;-81
2022/09/20 10:52:30;;;;;;;0.17;0.17;;;15.70;99.90;;;;;;4859555;29;20053;-81
2022/09/20 10:55:26;;;;;;;0.20;0.20;;;15.70;99.90;;;;;;4859222;29;20259;-81
2022/09/20 10:58:15;;;;;;;0.20;0.20;;;15.70;99.90;;;;;;4878295;29;20116;-81
2022/09/20 11:00:49;;;;;;;0.20;0.20;;;15.70;99.90;;;;;;4881503;29;20041;-80
2022/09/20 11:03:24;;;;;;;0.20;0.20;;;15.70;99.90;;;;;;4866763;29;20124;-81
2022/09/20 11:06:20;;;;;;;0.20;0.20;;;15.70;99.90;;;;;;4864915;29;20057;-79
2022/09/20 11:08:50;;;;;;;0.13;0.13;;;15.60;99.90;;;;;;4889686;29;20077;-80
2022/09/20 11:11:28;;;;;;;0.20;0.20;;;15.70;99.90;;;;;;4862066;29;20052;-80
2022/09/20 11:14:12;;;;;;;0.20;0.20;;;15.60;99.90;;;;;;4878498;29;20330;-80
2022/09/20 11:16:50;;;;;;;0.10;0.10;;;15.60;99.90;;;;;;4881470;29;20052;-80
2022/09/20 11:19:17;;;;;;;0.10;0.10;;;15.70;99.90;;;;;;4854876;29;20081;-80
2022/09/20 11:21:51;;;;;;;0.20;0.20;;;15.80;99.90;;;;;;4867049;29;20057;-81
2022/09/20 11:24:20;;;;;;;0.20;0.20;;;15.90;99.90;;;;;;4875861;29;20045;-80
2022/09/20 11:26:52;;;;;;;0.20;0.20;;;16.00;99.90;;;;;;4876349;29;20346;-81
2022/09/20 11:29:55;;;;;;;0.20;0.20;;;16.00;99.90;;;;;;4859483;29;20041;-81
2022/09/20 11:32:41;;;;;;;0.20;0.20;;;16.10;99.90;;;;;;4877979;29;20052;-81
2022/09/20 11:35:10;;;;;;;0.20;0.20;;;16.10;99.90;;;;;;4875672;29;20514;-81
2022/09/20 11:37:46;;;;;;;0.20;0.20;;;16.30;99.90;;;;;;4867950;29;20095;-81
2022/09/20 11:40:25;;;;;;;0.20;0.20;;;16.50;99.90;;;;;;4843904;29;20179;-81
2022/09/20 11:42:53;;;;;;;0.13;0.13;;;16.60;99.90;;;;;;4876511;29;20045;-80
2022/09/20 11:45:19;;;;;;;0.20;0.20;;;16.70;99.90;;;;;;4873768;29;20642;-79
2022/09/20 11:47:48;;;;;;;0.20;0.20;;;16.80;99.90;;;;;;4875329;29;20048;-77
2022/09/20 11:50:31;;;;;;;0.10;0.10;;;16.70;99.90;;;;;;4880783;29;20056;-79
2022/09/20 11:53:12;;;;;;;0.20;0.20;;;16.50;99.90;;;;;;4871018;29;20170;-81
2022/09/20 11:55:56;;;;;;;0.20;0.20;;;16.40;99.90;;;;;;4860342;29;20049;-81
2022/09/20 11:58:22;;;;;;;0.20;0.20;;;16.20;99.90;;;;;;4860349;29;20041;-81
2022/09/20 12:00:54;;;;;;;0.20;0.20;;;16.20;99.90;;;;;;4878819;29;20049;-82
2022/09/20 12:03:37;;;;;;;0.20;0.20;;;16.20;99.90;;;;;;4876640;29;20477;-79
2022/09/20 12:06:19;;;;;;;0.20;0.20;;;16.10;99.90;;;;;;4877530;29;20045;-81
2022/09/20 12:08:49;;;;;;;0.15;0.15;;;16.00;99.90;;;;;;4846182;29;20061;-80
2022/09/20 12:11:25;;;;;;;0.20;0.20;;;16.10;99.90;;;;;;4878350;29;20049;-80
2022/09/20 12:14:03;;;;;;;0.20;0.20;;;16.20;99.90;;;;;;4877096;29;20059;-80
2022/09/20 12:16:46;;;;;;;0.20;0.20;;;16.20;99.90;;;;;;4875680;29;20405;-81
2022/09/20 12:19:20;;;;;;;0.10;0.10;;;16.30;99.90;;;;;;4877917;29;20049;-82
2022/09/20 12:21:57;;;;;;;0.10;0.10;;;16.30;99.90;;;;;;4861157;29;20485;-82
2022/09/20 12:24:28;;;;;;;0.20;0.20;;;16.40;99.90;;;;;;4862251;29;20513;-82
2022/09/20 12:26:56;;;;;;;0.17;0.17;;;16.50;99.90;;;;;;4877783;29;20060;-81
2022/09/20 12:29:25;;;;;;;0.20;0.20;;;16.70;99.90;;;;;;4875475;29;20048;-81
2022/09/20 12:31:58;;;;;;;0.20;0.20;;;16.80;99.90;;;;;;4859364;29;20049;-81
2022/09/20 12:34:24;;;;;;;0.10;0.10;;;17.10;99.90;;;;;;4860115;29;20057;-81
2022/09/20 12:36:53;;;;;;;0.20;0.20;;;17.40;99.90;;;;;;4860725;29;20045;-80
2022/09/20 12:39:28;;;;;;;0.13;0.13;;;17.60;99.90;;;;;;4859623;29;20080;-80
2022/09/20 12:41:58;;;;;;;0.17;0.17;;;17.80;99.90;;;;;;4877780;29;20203;-79
2022/09/20 12:44:25;;;;;;;0.20;0.20;;;17.90;99.90;;;;;;4858509;29;20048;-80
2022/09/20 12:47:00;;;;;;;0.10;0.10;;;18.00;99.90;;;;;;4859452;29;20077;-81
2022/09/20 12:52:54;;;;;;;0.20;0.20;;;18.10;99.90;;;;;;4859680;29;20056;-80
2022/09/20 12:55:32;;;;;;;0.20;0.20;;;18.10;99.90;;;;;;4867681;29;20525;-79
2022/09/20 12:58:16;;;;;;;0.20;0.20;;;18.20;99.90;;;;;;4857539;29;20512;-80
2022/09/20 13:00:59;;;;;;;0.20;0.20;;;18.20;99.90;;;;;;4856305;29;20059;-80
2022/09/20 13:03:39;;;;;;;0.10;0.10;;;18.30;99.90;;;;;;4872632;29;20049;-80
2022/09/20 13:06:05;;;;;;;0.20;0.20;;;18.20;99.90;;;;;;4860282;29;20049;-79
2022/09/20 13:08:41;;;;;;;0.20;0.20;;;18.30;99.90;;;;;;4859960;29;20047;-81
2022/09/20 13:11:12;;;;;;;0.20;0.20;;;18.20;99.90;;;;;;4876216;29;20060;-79
2022/09/20 13:14:05;;;;;;;0.20;0.20;;;18.30;99.90;;;;;;4877090;29;20045;-80
2022/09/20 13:16:38;;;;;;;0.20;0.20;;;18.40;99.90;;;;;;4894685;29;20103;-81
2022/09/20 13:19:18;;;;;;;0.20;0.20;;;18.50;99.90;;;;;;4864744;29;20049;-81
2022/09/20 13:21:54;;;;;;;0.20;0.20;;;18.70;99.90;;;;;;4876683;29;20057;-81
2022/09/20 13:24:24;;;;;;;0.20;0.20;;;18.80;99.90;;;;;;4873261;29;20160;-75
2022/09/20 13:26:53;;;;;;;0.20;0.20;;;18.60;99.90;;;;;;4863757;29;20461;-80
2022/09/20 13:29:32;;;;;;;0.10;0.10;;;18.50;99.90;;;;;;4879348;29;20091;-80
2022/09/20 13:32:22;;;;;;;0.20;0.20;;;18.30;99.90;;;;;;4856927;29;20053;-80
2022/09/20 13:35:09;;;;;;;0.30;0.30;;;18.40;99.90;;;;;;4870724;29;20124;-81
2022/09/20 13:37:45;;;;;;;0.20;0.20;;;18.40;99.90;;;;;;4857298;29;20045;-80
2022/09/20 13:40:21;;;;;;;0.22;0.22;;;18.50;99.90;;;;;;4855966;29;21858;-80
2022/09/20 13:42:48;;;;;;;0.20;0.20;;;18.50;99.90;;;;;;4875286;29;20048;-79
2022/09/20 13:45:15;;;;;;;0.20;0.20;;;18.50;99.90;;;;;;4876318;29;20128;-80
2022/09/20 13:47:43;;;;;;;0.20;0.20;;;18.50;99.90;;;;;;4856319;29;20405;-80
2022/09/20 13:50:28;;;;;;;0.20;0.20;;;18.40;99.90;;;;;;4857336;29;20097;-81
2022/09/20 13:52:57;;;;;;;0.20;0.20;;;18.30;99.90;;;;;;4875629;29;20053;-80
2022/09/20 13:55:27;;;;;;;0.20;0.20;;;18.30;99.90;;;;;;4875709;29;20048;-80
2022/09/20 13:57:55;;;;;;;0.20;0.20;;;18.20;99.90;;;;;;4874891;29;20041;-79